Time;durP1;ratioP1;P1;durP2;ratioP2;P2;SDS_P1;SDS_P2;PMS_P1;PMS_P2;Temp;Humidity;BMP_temperature;BMP_pressure;BME280_temperature;BME280_humidity;BME280_pressure;Samples;Min_cycle;Max_cycle;Signal;HPM_P1;HPM_P2
2024/02/13 00:01:29;;;;;;;9.13;1.60;;;5.70;99.90;;;;;;5057166;28;20450;-72
2024/02/13 00:03:58;;;;;;;9.60;1.73;;;5.70;99.90;;;;;;5068027;28;20480;-72
2024/02/13 00:06:27;;;;;;;9.47;2.03;;;5.70;99.90;;;;;;5074728;28;20438;-74
2024/02/13 00:08:55;;;;;;;13.37;2.23;;;5.70;99.90;;;;;;5067914;28;20436;-72
2024/02/13 00:11:24;;;;;;;10.07;1.70;;;5.70;99.90;;;;;;5047138;28;20496;-71
2024/02/13 00:13:52;;;;;;;7.83;1.73;;;5.80;99.90;;;;;;5054947;28;20541;-72
2024/02/13 00:16:20;;;;;;;9.30;2.10;;;5.90;99.90;;;;;;5057850;28;20440;-73
2024/02/13 00:18:48;;;;;;;10.30;1.97;;;5.80;99.90;;;;;;5055089;28;20981;-71
2024/02/13 00:21:18;;;;;;;12.57;2.30;;;5.90;99.90;;;;;;5050040;28;20526;-71
2024/02/13 00:23:46;;;;;;;10.03;2.20;;;5.90;99.90;;;;;;5057210;28;20499;-72
2024/02/13 00:26:14;;;;;;;9.47;1.97;;;5.90;99.90;;;;;;5053380;28;20541;-72
2024/02/13 00:28:44;;;;;;;13.40;2.07;;;5.90;99.90;;;;;;5061809;28;20448;-71
2024/02/13 00:31:11;;;;;;;7.90;2.07;;;5.80;99.90;;;;;;5053175;28;20440;-73
2024/02/13 00:33:40;;;;;;;12.63;2.13;;;5.70;99.90;;;;;;5060498;28;20485;-71
2024/02/13 00:36:08;;;;;;;10.00;1.87;;;5.70;99.90;;;;;;5051315;28;20436;-73
2024/02/13 00:38:42;;;;;;;9.80;1.97;;;5.70;99.90;;;;;;5070977;28;20538;-72
2024/02/13 00:41:10;;;;;;;12.60;2.50;;;5.70;99.90;;;;;;5050819;28;20452;-72
2024/02/13 00:43:38;;;;;;;9.50;1.80;;;5.90;99.90;;;;;;5051635;28;20539;-71
2024/02/13 00:46:06;;;;;;;11.07;2.17;;;6.00;99.90;;;;;;5045743;28;20525;-71
2024/02/13 00:48:34;;;;;;;8.27;2.43;;;6.10;99.90;;;;;;5050304;28;20511;-72
2024/02/13 00:51:03;;;;;;;11.40;1.87;;;6.10;99.90;;;;;;5056973;28;20527;-72
2024/02/13 00:53:31;;;;;;;12.20;1.57;;;6.00;99.90;;;;;;5053198;28;20878;-73
2024/02/13 00:56:01;;;;;;;9.90;2.40;;;6.00;99.90;;;;;;5061031;28;20520;-72
2024/02/13 00:58:29;;;;;;;8.90;3.43;;;6.10;99.90;;;;;;5061291;28;20545;-74
2024/02/13 01:00:58;;;;;;;9.37;1.90;;;6.00;99.90;;;;;;5060473;28;20445;-73
2024/02/13 01:03:26;;;;;;;10.53;1.50;;;6.10;99.90;;;;;;5060856;28;20469;-72
2024/02/13 01:05:54;;;;;;;8.30;1.87;;;6.10;99.90;;;;;;5060458;28;20896;-70
2024/02/13 01:08:24;;;;;;;9.70;1.87;;;6.20;99.90;;;;;;5061088;28;21107;-70
2024/02/13 01:10:52;;;;;;;13.00;2.27;;;6.20;99.90;;;;;;5054291;28;20497;-70
2024/02/13 01:13:21;;;;;;;10.73;1.70;;;6.30;99.90;;;;;;5048425;28;20470;-69
2024/02/13 01:15:49;;;;;;;15.53;1.97;;;6.40;99.90;;;;;;5044128;28;20596;-72
2024/02/13 01:18:17;;;;;;;8.20;1.60;;;6.50;99.90;;;;;;5057791;28;20518;-72
2024/02/13 01:20:45;;;;;;;15.13;2.10;;;6.40;99.90;;;;;;5063246;28;20483;-71
2024/02/13 01:23:14;;;;;;;8.17;1.30;;;6.40;99.90;;;;;;5060925;28;20466;-73
2024/02/13 01:25:42;;;;;;;9.73;1.77;;;6.40;99.90;;;;;;5062951;28;20481;-73
2024/02/13 01:28:09;;;;;;;12.97;1.80;;;6.50;99.90;;;;;;5054909;28;20928;-71
2024/02/13 01:30:39;;;;;;;10.83;2.00;;;6.50;99.90;;;;;;5054887;28;20505;-72
2024/02/13 01:33:07;;;;;;;9.23;1.63;;;6.50;99.90;;;;;;5064011;28;21108;-71
2024/02/13 01:35:37;;;;;;;13.93;1.77;;;6.50;99.90;;;;;;5063283;28;20453;-71
2024/02/13 01:38:06;;;;;;;8.60;2.40;;;6.50;99.90;;;;;;5064310;28;20439;-73
2024/02/13 01:40:35;;;;;;;7.73;1.77;;;6.50;99.90;;;;;;5061218;28;20458;-71
2024/02/13 01:43:03;;;;;;;12.00;2.07;;;6.60;99.90;;;;;;5063657;28;20463;-70
2024/02/13 01:45:31;;;;;;;7.47;1.30;;;6.70;99.90;;;;;;5059609;28;20514;-71
2024/02/13 01:48:04;;;;;;;8.60;1.80;;;6.70;99.90;;;;;;5063857;28;20451;-71
2024/02/13 01:50:32;;;;;;;10.53;2.00;;;6.70;99.90;;;;;;5060688;28;20454;-71
2024/02/13 01:53:01;;;;;;;10.30;2.23;;;6.70;99.90;;;;;;5067024;28;20476;-74
2024/02/13 01:55:29;;;;;;;8.83;1.67;;;6.60;99.90;;;;;;5068167;28;20447;-72
2024/02/13 01:58:01;;;;;;;8.63;1.40;;;6.70;99.90;;;;;;5067283;28;20452;-71
2024/02/13 02:00:32;;;;;;;8.90;3.10;;;6.70;99.90;;;;;;5067355;28;20443;-72
2024/02/13 02:03:03;;;;;;;10.83;1.90;;;6.70;99.90;;;;;;5065587;28;20604;-72
2024/02/13 02:05:32;;;;;;;9.77;2.10;;;6.70;99.90;;;;;;5056174;28;20480;-72
2024/02/13 02:08:01;;;;;;;8.73;1.73;;;6.80;99.90;;;;;;5066749;28;20465;-73
2024/02/13 02:10:29;;;;;;;11.17;1.90;;;6.80;99.90;;;;;;5068313;28;20466;-72
2024/02/13 02:12:57;;;;;;;11.00;1.80;;;6.70;99.90;;;;;;5066321;28;20475;-71
2024/02/13 02:15:24;;;;;;;8.07;1.87;;;6.70;99.90;;;;;;5060692;28;20999;-71
2024/02/13 02:17:53;;;;;;;9.53;1.60;;;6.60;99.90;;;;;;5067158;28;20818;-72
2024/02/13 02:20:23;;;;;;;12.30;2.30;;;6.70;99.90;;;;;;5065591;28;20450;-71
2024/02/13 02:22:52;;;;;;;9.90;2.47;;;6.60;99.90;;;;;;5065894;28;20470;-71
2024/02/13 02:25:21;;;;;;;9.70;2.10;;;6.60;99.90;;;;;;5065889;28;20852;-72
2024/02/13 02:27:50;;;;;;;9.90;2.00;;;6.60;99.90;;;;;;5067275;28;20442;-71
2024/02/13 02:30:18;;;;;;;9.43;1.80;;;6.50;99.90;;;;;;5066802;28;20505;-72
2024/02/13 02:32:47;;;;;;;8.40;1.90;;;6.40;99.90;;;;;;5066309;28;20697;-72
2024/02/13 02:35:16;;;;;;;8.70;1.90;;;6.30;99.90;;;;;;5065312;28;20468;-71
2024/02/13 02:37:48;;;;;;;13.43;2.83;;;6.10;99.90;;;;;;5063313;28;20449;-71
2024/02/13 02:40:18;;;;;;;10.77;2.17;;;6.10;99.90;;;;;;5066724;28;20457;-71
2024/02/13 02:42:48;;;;;;;9.20;1.70;;;6.10;99.90;;;;;;5065571;28;20471;-72
2024/02/13 02:45:17;;;;;;;8.30;1.97;;;6.00;99.90;;;;;;5066552;28;20523;-71
2024/02/13 02:47:46;;;;;;;8.80;1.50;;;5.90;99.90;;;;;;5066779;28;20454;-72
2024/02/13 02:50:14;;;;;;;9.40;1.70;;;5.70;99.90;;;;;;5066293;28;21202;-72
2024/02/13 02:52:43;;;;;;;10.60;2.07;;;5.70;99.90;;;;;;5065632;28;20459;-71
2024/02/13 02:55:11;;;;;;;8.70;1.97;;;5.60;99.90;;;;;;5056902;28;20441;-73
2024/02/13 02:57:39;;;;;;;9.03;1.83;;;5.50;99.90;;;;;;5066050;28;20961;-72
2024/02/13 03:00:12;;;;;;;10.00;1.63;;;5.40;99.90;;;;;;5066574;28;20882;-72
2024/02/13 03:02:41;;;;;;;13.20;1.63;;;5.30;99.90;;;;;;5065991;28;20526;-72
2024/02/13 03:05:10;;;;;;;9.43;1.73;;;5.30;99.90;;;;;;5065501;28;20451;-72
2024/02/13 03:07:41;;;;;;;10.17;2.47;;;5.30;99.90;;;;;;5066049;28;20467;-72
2024/02/13 03:10:10;;;;;;;12.27;1.93;;;5.30;99.90;;;;;;5061887;28;20478;-73
2024/02/13 03:12:40;;;;;;;11.90;2.20;;;5.30;99.90;;;;;;5064214;28;20467;-72
2024/02/13 03:15:12;;;;;;;8.70;2.10;;;5.30;99.90;;;;;;5066937;28;20524;-72
2024/02/13 03:17:40;;;;;;;9.40;2.00;;;5.30;99.90;;;;;;5065930;28;20510;-71
2024/02/13 03:20:10;;;;;;;10.07;2.13;;;5.20;99.90;;;;;;5059964;28;20479;-72
2024/02/13 03:22:42;;;;;;;10.10;2.20;;;5.10;99.90;;;;;;5060920;28;20466;-72
2024/02/13 03:25:10;;;;;;;13.17;1.80;;;5.00;99.90;;;;;;5049057;28;20519;-70
2024/02/13 03:27:38;;;;;;;11.07;1.70;;;4.90;99.90;;;;;;5065736;28;20458;-72
2024/02/13 03:30:10;;;;;;;8.77;1.70;;;4.80;99.90;;;;;;5046488;28;20961;-71
2024/02/13 03:32:38;;;;;;;9.33;2.30;;;4.70;99.90;;;;;;5046631;28;20576;-72
2024/02/13 03:35:09;;;;;;;9.37;1.73;;;4.60;99.90;;;;;;5045382;28;21237;-71
2024/02/13 03:37:36;;;;;;;10.70;2.43;;;4.60;99.90;;;;;;5063211;28;20545;-71
2024/02/13 03:40:06;;;;;;;8.00;1.43;;;4.50;99.90;;;;;;5065995;28;20473;-72
2024/02/13 03:42:33;;;;;;;8.10;1.53;;;4.40;99.90;;;;;;5064921;28;20524;-71
2024/02/13 03:45:01;;;;;;;11.53;1.93;;;4.50;99.90;;;;;;5065495;28;20443;-72
2024/02/13 03:47:33;;;;;;;8.90;2.07;;;4.50;99.90;;;;;;5067519;28;20492;-71
2024/02/13 03:50:01;;;;;;;10.03;1.90;;;4.60;99.90;;;;;;5067571;28;21118;-71
2024/02/13 03:52:31;;;;;;;11.70;2.20;;;4.50;99.90;;;;;;5067144;28;20576;-71
2024/02/13 03:54:59;;;;;;;8.03;2.00;;;4.50;99.90;;;;;;5065630;28;20442;-71
2024/02/13 03:57:30;;;;;;;9.57;2.10;;;4.50;99.90;;;;;;5066616;28;20816;-71
2024/02/13 03:59:58;;;;;;;13.53;2.20;;;4.60;99.90;;;;;;5066480;28;20561;-72
2024/02/13 04:02:27;;;;;;;10.63;2.00;;;4.70;99.90;;;;;;5065780;28;20565;-71
2024/02/13 04:04:56;;;;;;;11.30;2.33;;;4.70;99.90;;;;;;5066097;28;20516;-71
2024/02/13 04:07:24;;;;;;;7.67;1.73;;;4.60;99.90;;;;;;5066338;28;20484;-72
2024/02/13 04:09:52;;;;;;;11.67;1.60;;;4.70;99.90;;;;;;5066352;28;20822;-72
2024/02/13 04:12:20;;;;;;;14.07;2.17;;;4.60;99.90;;;;;;5063615;28;20471;-72
2024/02/13 04:14:49;;;;;;;10.77;1.80;;;4.70;99.90;;;;;;5065901;28;20478;-71
2024/02/13 04:17:18;;;;;;;15.23;2.10;;;4.70;99.90;;;;;;5066245;28;20450;-71
2024/02/13 04:19:46;;;;;;;8.67;1.87;;;4.60;99.90;;;;;;5066191;28;20510;-72
2024/02/13 04:22:15;;;;;;;7.47;1.70;;;4.50;99.90;;;;;;5065279;28;20475;-71
2024/02/13 04:24:43;;;;;;;9.83;2.07;;;4.40;99.90;;;;;;5064175;28;20442;-70
2024/02/13 04:27:11;;;;;;;12.80;2.60;;;4.50;99.90;;;;;;5066752;28;21290;-70
2024/02/13 04:29:41;;;;;;;8.93;2.47;;;4.50;99.90;;;;;;5053802;28;20443;-71
2024/02/13 04:32:09;;;;;;;11.97;1.67;;;4.50;99.90;;;;;;5045305;28;20556;-69
2024/02/13 04:34:37;;;;;;;9.40;1.60;;;4.60;99.90;;;;;;5045594;28;20445;-71
2024/02/13 04:37:05;;;;;;;9.03;1.73;;;4.70;99.90;;;;;;5046191;28;20456;-71
2024/02/13 04:39:42;;;;;;;11.10;2.20;;;4.80;99.90;;;;;;5046583;28;20450;-72
2024/02/13 04:42:11;;;;;;;10.40;2.10;;;4.80;99.90;;;;;;5045545;28;20470;-71
2024/02/13 04:44:41;;;;;;;9.73;2.20;;;4.80;99.90;;;;;;5045482;28;20490;-73
2024/02/13 04:47:08;;;;;;;10.60;2.63;;;4.80;99.90;;;;;;5058284;28;20636;-73
2024/02/13 04:49:36;;;;;;;10.43;1.90;;;4.90;99.90;;;;;;5069718;28;20870;-72
2024/02/13 04:52:05;;;;;;;8.87;2.10;;;4.90;99.90;;;;;;5069130;28;20523;-71
2024/02/13 04:54:34;;;;;;;13.30;1.87;;;5.00;99.90;;;;;;5069434;28;20495;-71
2024/02/13 04:57:03;;;;;;;6.90;1.30;;;5.00;99.90;;;;;;5069776;28;20449;-71
2024/02/13 04:59:37;;;;;;;10.03;2.17;;;5.00;99.90;;;;;;5068807;28;20455;-71
2024/02/13 05:02:05;;;;;;;9.50;1.80;;;5.00;99.90;;;;;;5068617;28;20445;-71
2024/02/13 05:07:23;;;;;;;10.20;2.13;;;5.00;99.90;;;;;;5062094;28;20481;-72
2024/02/13 05:09:53;;;;;;;9.20;2.00;;;5.10;99.90;;;;;;5069523;28;20473;-72
2024/02/13 05:12:21;;;;;;;9.67;2.40;;;5.20;99.90;;;;;;5068441;28;20466;-71
2024/02/13 05:14:49;;;;;;;8.00;2.07;;;5.30;99.90;;;;;;5069072;28;20523;-72
2024/02/13 05:17:17;;;;;;;9.00;2.70;;;5.40;99.90;;;;;;5069292;28;20449;-72
2024/02/13 05:19:44;;;;;;;9.40;2.00;;;5.40;99.90;;;;;;5069130;28;20644;-71
2024/02/13 05:22:14;;;;;;;8.17;1.90;;;5.40;99.90;;;;;;5066331;28;20983;-72
2024/02/13 05:24:42;;;;;;;10.57;1.73;;;5.50;99.90;;;;;;5068787;28;20540;-72
2024/02/13 05:27:12;;;;;;;8.23;1.73;;;5.60;99.90;;;;;;5068798;28;20518;-72
2024/02/13 05:29:41;;;;;;;9.07;2.10;;;5.70;99.90;;;;;;5068104;28;20461;-72
2024/02/13 05:32:09;;;;;;;9.80;2.27;;;5.60;99.90;;;;;;5069225;28;20536;-71
2024/02/13 05:34:38;;;;;;;10.30;2.43;;;5.70;99.90;;;;;;5069465;28;20809;-72
2024/02/13 05:37:06;;;;;;;10.37;3.43;;;5.70;99.90;;;;;;5069251;28;20439;-73
2024/02/13 05:39:34;;;;;;;7.47;1.90;;;5.70;99.90;;;;;;5069961;28;20457;-72
2024/02/13 05:42:01;;;;;;;11.53;2.40;;;5.70;99.90;;;;;;5067755;28;20481;-72
2024/02/13 05:44:31;;;;;;;9.10;1.90;;;5.70;99.90;;;;;;5069215;28;20513;-72
2024/02/13 05:46:59;;;;;;;10.43;2.30;;;5.60;99.90;;;;;;5069435;28;20490;-71
2024/02/13 05:49:27;;;;;;;8.87;2.30;;;5.70;99.90;;;;;;5069520;28;20451;-72
2024/02/13 05:51:56;;;;;;;9.43;2.37;;;5.70;99.90;;;;;;5066007;28;20533;-72
2024/02/13 05:54:24;;;;;;;9.93;2.73;;;5.70;99.90;;;;;;5069590;28;20450;-71
2024/02/13 05:56:52;;;;;;;7.20;2.20;;;5.70;99.90;;;;;;5069166;28;20971;-71
2024/02/13 05:59:25;;;;;;;10.93;2.23;;;5.80;99.90;;;;;;5069818;28;20445;-72
2024/02/13 06:01:54;;;;;;;8.13;2.00;;;5.70;99.90;;;;;;5068037;28;20532;-71
2024/02/13 06:04:23;;;;;;;9.47;2.07;;;5.70;99.90;;;;;;5068187;28;20450;-72
2024/02/13 06:06:52;;;;;;;9.00;2.70;;;5.70;99.90;;;;;;5067572;28;20475;-72
2024/02/13 06:09:22;;;;;;;8.83;2.30;;;5.80;99.90;;;;;;5067107;28;20533;-73
2024/02/13 06:11:50;;;;;;;8.43;2.00;;;5.80;99.90;;;;;;5067467;28;20443;-72
2024/02/13 06:14:18;;;;;;;8.00;2.10;;;5.80;99.90;;;;;;5068050;28;20450;-72
2024/02/13 06:16:47;;;;;;;15.73;2.63;;;5.90;99.90;;;;;;5067387;28;20524;-72
2024/02/13 06:19:16;;;;;;;8.57;2.90;;;5.90;99.90;;;;;;5068208;28;20443;-73
2024/02/13 06:21:44;;;;;;;10.37;2.50;;;5.90;99.90;;;;;;5067343;28;20538;-72
2024/02/13 06:24:12;;;;;;;9.83;2.40;;;5.90;99.90;;;;;;5067693;28;20490;-72
2024/02/13 06:26:39;;;;;;;10.50;2.57;;;5.90;99.90;;;;;;5065505;28;20467;-71
2024/02/13 06:29:08;;;;;;;7.77;2.00;;;5.90;99.90;;;;;;5067819;28;20439;-71
2024/02/13 06:31:36;;;;;;;9.20;2.60;;;5.90;99.90;;;;;;5066480;28;20789;-72
2024/02/13 06:34:04;;;;;;;8.30;2.53;;;6.00;99.90;;;;;;5068490;28;20469;-71
2024/02/13 06:36:34;;;;;;;12.30;2.80;;;6.10;99.90;;;;;;5068139;28;21024;-71
2024/02/13 06:39:02;;;;;;;9.07;2.40;;;6.00;99.90;;;;;;5068675;28;20449;-72
2024/02/13 06:41:30;;;;;;;11.83;2.77;;;6.00;99.90;;;;;;5067913;28;20480;-71
2024/02/13 06:43:58;;;;;;;10.17;2.70;;;6.10;99.90;;;;;;5075341;28;20495;-72
2024/02/13 06:46:26;;;;;;;10.20;2.50;;;6.10;99.90;;;;;;5047913;28;20450;-73
2024/02/13 06:48:57;;;;;;;8.00;2.30;;;6.10;99.90;;;;;;5048229;28;20876;-71
2024/02/13 06:51:25;;;;;;;13.80;2.60;;;6.10;99.90;;;;;;5047054;28;20445;-72
2024/02/13 06:54:00;;;;;;;9.33;2.70;;;6.10;99.90;;;;;;5047307;28;20472;-71
2024/02/13 06:56:28;;;;;;;12.87;2.70;;;6.10;99.90;;;;;;5047105;28;20481;-71
2024/02/13 06:58:58;;;;;;;11.00;2.40;;;6.20;99.90;;;;;;5047240;28;21011;-71
2024/02/13 07:01:26;;;;;;;10.83;2.53;;;6.20;99.90;;;;;;5051622;28;20450;-71
2024/02/13 07:03:54;;;;;;;10.83;2.30;;;6.20;99.90;;;;;;5067140;28;20562;-71
2024/02/13 07:06:23;;;;;;;10.60;2.50;;;6.30;99.90;;;;;;5066757;28;20454;-71
2024/02/13 07:09:16;;;;;;;10.97;2.63;;;6.20;99.90;;;;;;5066521;28;20568;-72
2024/02/13 07:11:44;;;;;;;9.80;2.10;;;6.30;99.90;;;;;;5066147;28;20450;-71
2024/02/13 07:14:17;;;;;;;10.23;2.30;;;6.40;99.90;;;;;;5066769;28;20479;-71
2024/02/13 07:16:47;;;;;;;11.00;2.30;;;6.40;99.90;;;;;;5062357;28;20964;-72
2024/02/13 07:19:15;;;;;;;11.60;2.30;;;6.20;99.90;;;;;;5064777;28;20439;-70
2024/02/13 07:21:44;;;;;;;12.47;2.47;;;6.20;99.90;;;;;;5062680;28;20451;-72
2024/02/13 07:24:13;;;;;;;10.57;3.03;;;6.20;99.90;;;;;;5065058;28;20463;-72
2024/02/13 07:26:41;;;;;;;9.57;2.40;;;6.10;99.90;;;;;;5047571;28;20466;-71
2024/02/13 07:29:09;;;;;;;8.70;2.27;;;6.10;99.90;;;;;;5047584;28;20490;-71
2024/02/13 07:31:37;;;;;;;10.40;3.03;;;6.00;99.90;;;;;;5047102;28;20467;-71
2024/02/13 07:34:05;;;;;;;9.40;3.00;;;6.00;99.90;;;;;;5047720;28;20471;-72
2024/02/13 07:36:33;;;;;;;9.33;2.60;;;6.00;99.90;;;;;;5061730;28;20445;-71
2024/02/13 07:39:02;;;;;;;9.77;2.83;;;6.10;99.90;;;;;;5067452;28;20550;-71
2024/02/13 07:41:34;;;;;;;12.83;3.57;;;6.10;99.90;;;;;;5066899;28;20478;-72
2024/02/13 07:44:03;;;;;;;11.13;2.97;;;6.20;99.90;;;;;;5067185;28;20934;-73
2024/02/13 07:46:31;;;;;;;13.50;2.80;;;6.40;99.90;;;;;;5066842;28;20453;-72
2024/02/13 07:48:58;;;;;;;13.17;3.20;;;6.50;99.90;;;;;;5067266;28;20485;-72
2024/02/13 07:51:27;;;;;;;11.17;2.40;;;6.60;99.90;;;;;;5066553;28;20447;-73
2024/02/13 07:53:55;;;;;;;15.23;3.50;;;6.70;99.90;;;;;;5066093;28;20550;-72
2024/02/13 07:56:28;;;;;;;14.87;2.37;;;6.70;99.90;;;;;;5067320;28;20449;-72
2024/02/13 07:58:58;;;;;;;11.17;2.80;;;6.80;99.90;;;;;;5069023;28;20534;-73
2024/02/13 08:01:27;;;;;;;13.30;3.03;;;6.90;99.90;;;;;;5066869;28;20447;-73
2024/02/13 08:03:55;;;;;;;10.27;2.30;;;6.90;99.90;;;;;;5066982;28;20474;-73
2024/02/13 08:06:23;;;;;;;9.73;2.67;;;6.90;99.90;;;;;;5066568;28;20481;-72
2024/02/13 08:08:52;;;;;;;9.50;2.27;;;6.80;99.90;;;;;;5055834;28;20542;-72
2024/02/13 08:11:21;;;;;;;11.40;3.13;;;6.80;99.90;;;;;;5051025;28;20436;-70
2024/02/13 08:13:49;;;;;;;11.20;2.70;;;6.70;99.90;;;;;;5055399;28;20450;-71
2024/02/13 08:16:21;;;;;;;9.40;2.83;;;6.60;99.90;;;;;;5056079;28;20491;-71
2024/02/13 08:18:50;;;;;;;11.73;2.80;;;6.50;99.90;;;;;;5050677;28;20436;-71
2024/02/13 08:21:19;;;;;;;13.10;3.10;;;6.50;99.90;;;;;;5052098;28;20539;-73
2024/02/13 08:23:47;;;;;;;10.70;2.90;;;6.50;99.90;;;;;;5072828;28;20552;-75
2024/02/13 08:26:15;;;;;;;10.87;3.03;;;6.60;99.90;;;;;;5055004;28;20466;-69
2024/02/13 08:28:44;;;;;;;9.50;2.53;;;6.80;99.90;;;;;;5065950;28;20478;-70
2024/02/13 08:31:12;;;;;;;12.50;3.00;;;6.90;99.90;;;;;;5067876;28;20457;-72
2024/02/13 08:33:41;;;;;;;11.10;3.23;;;7.00;99.90;;;;;;5062475;28;20471;-70
2024/02/13 08:36:11;;;;;;;10.80;2.87;;;7.10;99.90;;;;;;5069097;28;20443;-70
2024/02/13 08:38:43;;;;;;;12.03;3.70;;;7.30;99.90;;;;;;5070731;28;20590;-69
2024/02/13 08:41:13;;;;;;;13.40;3.47;;;7.40;99.90;;;;;;5069382;28;20537;-71
2024/02/13 08:43:41;;;;;;;13.40;4.07;;;7.40;99.90;;;;;;5065677;28;20533;-70
2024/02/13 08:46:10;;;;;;;10.80;4.23;;;7.60;99.90;;;;;;5068421;28;20446;-75
2024/02/13 08:48:38;;;;;;;11.93;3.17;;;7.70;99.90;;;;;;5063494;28;20476;-71
2024/02/13 08:51:07;;;;;;;10.27;3.10;;;7.80;99.90;;;;;;5060839;28;20455;-69
2024/02/13 08:53:35;;;;;;;10.37;3.17;;;7.90;99.90;;;;;;5064662;28;20468;-71
2024/02/13 08:56:04;;;;;;;10.90;3.27;;;8.10;99.90;;;;;;5058170;28;20539;-70
2024/02/13 08:58:32;;;;;;;12.77;3.73;;;8.40;99.90;;;;;;5056519;28;20447;-71
2024/02/13 09:01:00;;;;;;;10.47;3.63;;;8.60;99.90;;;;;;5057773;28;20511;-72
2024/02/13 09:03:28;;;;;;;12.47;3.23;;;8.80;99.90;;;;;;5059233;28;20473;-73
2024/02/13 09:05:58;;;;;;;12.07;2.60;;;8.90;99.90;;;;;;5065598;28;20530;-70
2024/02/13 09:08:29;;;;;;;10.10;2.10;;;9.10;99.90;;;;;;5056730;28;20546;-71
2024/02/13 09:10:57;;;;;;;10.80;2.50;;;9.40;99.90;;;;;;5056161;28;20794;-70
2024/02/13 09:13:27;;;;;;;9.43;2.57;;;9.70;99.90;;;;;;5060678;28;20521;-70
2024/02/13 09:15:55;;;;;;;10.90;2.73;;;9.80;99.90;;;;;;5069152;28;20446;-70
2024/02/13 09:18:23;;;;;;;11.73;3.27;;;9.80;99.90;;;;;;5068921;28;20500;-70
2024/02/13 09:20:52;;;;;;;12.37;3.40;;;10.00;99.90;;;;;;5061813;28;20541;-71
2024/02/13 09:23:20;;;;;;;9.93;2.03;;;10.10;99.90;;;;;;5066641;28;20462;-71
2024/02/13 09:25:51;;;;;;;7.83;2.23;;;10.20;99.90;;;;;;5069352;28;20546;-71
2024/02/13 09:28:19;;;;;;;9.80;1.90;;;10.40;99.90;;;;;;5070158;28;20446;-72
2024/02/13 09:30:47;;;;;;;7.33;1.27;;;10.60;99.90;;;;;;5069384;28;20504;-71
2024/02/13 09:33:17;;;;;;;7.70;2.00;;;10.80;99.90;;;;;;5064141;28;20463;-72
2024/02/13 09:35:45;;;;;;;10.53;1.53;;;11.10;99.90;;;;;;5068444;28;20511;-69
2024/02/13 09:38:13;;;;;;;7.70;1.30;;;11.40;99.90;;;;;;5070991;28;20452;-72
2024/02/13 09:40:42;;;;;;;11.93;2.20;;;11.40;99.90;;;;;;5068120;28;20444;-71
2024/02/13 09:43:11;;;;;;;7.23;1.27;;;11.00;99.90;;;;;;5065808;28;20471;-72
2024/02/13 09:45:41;;;;;;;7.73;1.60;;;11.00;99.90;;;;;;5068463;28;20449;-74
2024/02/13 09:48:16;;;;;;;9.83;2.00;;;11.20;99.90;;;;;;5075886;28;20464;-73
2024/02/13 09:50:45;;;;;;;7.70;1.50;;;11.10;99.90;;;;;;5065699;28;20493;-73
2024/02/13 09:53:19;;;;;;;10.10;1.70;;;11.10;99.90;;;;;;5071243;28;20516;-72
2024/02/13 09:55:47;;;;;;;7.83;1.70;;;11.00;99.90;;;;;;5073282;28;20549;-74
2024/02/13 09:58:18;;;;;;;8.30;1.57;;;11.10;99.90;;;;;;5062098;28;20438;-72
2024/02/13 10:00:46;;;;;;;7.93;1.30;;;11.10;99.90;;;;;;5070682;28;20454;-70
2024/02/13 10:03:14;;;;;;;11.03;1.87;;;11.10;99.90;;;;;;5070420;28;20450;-71
2024/02/13 10:05:43;;;;;;;8.43;1.10;;;10.90;99.90;;;;;;5073247;28;20439;-73
2024/02/13 10:08:11;;;;;;;11.40;1.47;;;10.90;99.90;;;;;;5069397;28;20445;-72
2024/02/13 10:10:40;;;;;;;7.37;1.40;;;11.00;99.90;;;;;;5073025;28;21028;-74
2024/02/13 10:13:09;;;;;;;6.67;1.00;;;11.00;99.90;;;;;;5070339;28;21001;-72
2024/02/13 10:15:43;;;;;;;8.60;1.10;;;10.80;99.90;;;;;;5064383;28;20452;-74
2024/02/13 10:18:13;;;;;;;8.40;1.17;;;10.50;99.90;;;;;;5064188;28;20492;-72
2024/02/13 10:20:47;;;;;;;8.80;1.43;;;10.60;99.90;;;;;;5049041;28;20479;-74
2024/02/13 10:23:18;;;;;;;8.40;1.50;;;10.50;99.90;;;;;;5067824;28;20463;-70
2024/02/13 10:25:47;;;;;;;8.90;1.23;;;10.50;99.90;;;;;;5068858;28;20461;-74
2024/02/13 10:28:19;;;;;;;9.33;1.33;;;10.50;99.90;;;;;;5067825;28;20453;-73
2024/02/13 10:30:51;;;;;;;7.73;1.37;;;10.50;99.80;;;;;;5059702;28;20528;-73
2024/02/13 10:33:20;;;;;;;11.60;1.27;;;10.30;99.90;;;;;;5056031;28;20464;-73
2024/02/13 10:35:52;;;;;;;10.43;1.30;;;10.60;99.90;;;;;;5057874;28;20479;-74
2024/02/13 10:38:28;;;;;;;7.60;1.23;;;11.30;98.30;;;;;;5059833;28;20462;-73
2024/02/13 10:40:58;;;;;;;7.00;1.13;;;11.90;97.40;;;;;;5060229;28;20443;-73
2024/02/13 10:43:29;;;;;;;11.30;1.30;;;12.00;94.90;;;;;;5059472;28;20494;-74
2024/02/13 10:46:05;;;;;;;8.97;1.67;;;12.10;94.70;;;;;;5056531;28;20537;-73
2024/02/13 10:48:40;;;;;;;8.27;1.10;;;12.30;94.40;;;;;;5057004;28;20476;-72
2024/02/13 10:51:08;;;;;;;7.80;1.50;;;12.80;93.20;;;;;;5058726;28;20529;-73
2024/02/13 10:53:37;;;;;;;8.20;1.30;;;13.50;93.70;;;;;;5061545;28;20468;-75
2024/02/13 10:56:08;;;;;;;8.03;1.50;;;14.30;90.90;;;;;;5054695;28;20463;-73
2024/02/13 10:58:36;;;;;;;10.93;1.37;;;14.90;84.00;;;;;;5057528;28;20554;-74
2024/02/13 11:01:06;;;;;;;7.80;1.33;;;15.10;78.60;;;;;;5058317;28;20438;-74
2024/02/13 11:03:38;;;;;;;8.50;1.20;;;15.00;77.50;;;;;;5058260;28;20463;-73
2024/02/13 11:06:06;;;;;;;10.63;1.57;;;14.40;83.70;;;;;;5053897;28;20515;-75
2024/02/13 11:08:36;;;;;;;10.37;1.23;;;14.60;84.30;;;;;;5058307;28;20446;-73
2024/02/13 11:11:15;;;;;;;8.40;1.40;;;14.80;83.30;;;;;;5060320;28;21180;-73
2024/02/13 11:13:44;;;;;;;8.50;1.50;;;14.90;80.60;;;;;;5061317;28;20523;-75
2024/02/13 11:16:13;;;;;;;9.20;1.60;;;14.80;81.10;;;;;;5053253;28;20442;-73
2024/02/13 11:18:47;;;;;;;9.03;1.30;;;13.80;84.50;;;;;;5068792;28;20522;-72
2024/02/13 11:21:20;;;;;;;7.23;1.13;;;13.00;87.80;;;;;;5063814;28;20439;-73
2024/02/13 11:23:53;;;;;;;7.53;1.40;;;12.40;89.40;;;;;;5069396;28;20475;-76
2024/02/13 11:26:21;;;;;;;8.20;1.30;;;11.90;91.10;;;;;;5053824;28;20548;-73
2024/02/13 11:28:49;;;;;;;7.20;1.10;;;11.60;91.30;;;;;;5058949;28;20443;-73
2024/02/13 11:31:18;;;;;;;9.60;1.70;;;11.10;92.00;;;;;;5056628;28;20572;-74
2024/02/13 11:34:08;;;;;;;8.20;2.20;;;10.70;92.90;;;;;;5056841;28;20570;-73
2024/02/13 11:36:37;;;;;;;9.37;1.00;;;10.80;92.50;;;;;;5054671;28;20443;-74
2024/02/13 11:39:07;;;;;;;9.97;2.10;;;10.90;90.50;;;;;;5053081;28;20541;-73
2024/02/13 11:41:35;;;;;;;12.47;2.03;;;10.80;92.40;;;;;;5053099;28;21325;-73
2024/02/13 11:44:07;;;;;;;9.43;1.50;;;10.80;93.60;;;;;;5051626;28;20554;-74
2024/02/13 11:46:38;;;;;;;8.63;1.93;;;11.30;92.50;;;;;;5057564;28;20446;-73
2024/02/13 11:49:09;;;;;;;11.00;1.67;;;12.00;91.30;;;;;;5056539;28;20440;-74
2024/02/13 11:51:39;;;;;;;12.17;4.03;;;12.00;90.80;;;;;;5058556;28;20992;-73
2024/02/13 11:54:08;;;;;;;7.50;1.73;;;12.40;90.70;;;;;;5064095;28;20574;-72
2024/02/13 11:56:37;;;;;;;8.70;1.07;;;12.60;90.70;;;;;;5062113;28;20449;-73
2024/02/13 11:59:06;;;;;;;7.63;1.43;;;12.60;88.30;;;;;;5060348;28;20440;-73
2024/02/13 12:01:37;;;;;;;7.87;1.20;;;12.20;87.90;;;;;;5054601;28;20436;-72
2024/02/13 12:04:07;;;;;;;7.60;1.27;;;11.70;87.50;;;;;;5055878;28;21180;-72
2024/02/13 12:06:35;;;;;;;8.67;1.30;;;11.60;90.80;;;;;;5052761;28;21734;-74
2024/02/13 12:09:04;;;;;;;9.87;1.60;;;11.40;90.10;;;;;;5053016;28;20467;-74
2024/02/13 12:11:32;;;;;;;6.30;0.80;;;11.30;90.00;;;;;;5049770;28;20838;-72
2024/02/13 12:14:01;;;;;;;7.57;1.30;;;10.90;88.00;;;;;;5057303;28;20487;-72
2024/02/13 12:16:28;;;;;;;7.23;1.73;;;10.70;89.80;;;;;;5061250;28;20563;-72
2024/02/13 12:18:58;;;;;;;7.60;1.27;;;10.60;89.90;;;;;;5063757;28;20443;-72
2024/02/13 12:21:27;;;;;;;9.40;1.20;;;10.70;87.20;;;;;;5055638;28;20446;-73
2024/02/13 12:24:01;;;;;;;7.07;0.90;;;10.90;89.80;;;;;;5053890;28;21462;-72
2024/02/13 12:26:29;;;;;;;6.60;0.90;;;11.30;87.90;;;;;;5059732;28;20531;-71
2024/02/13 12:28:59;;;;;;;7.40;1.27;;;11.50;86.80;;;;;;5058016;28;20448;-73
2024/02/13 12:31:29;;;;;;;9.23;1.40;;;11.30;87.00;;;;;;5057713;28;20943;-73
2024/02/13 12:34:02;;;;;;;7.03;1.07;;;11.10;86.30;;;;;;5056622;28;21149;-73
2024/02/13 12:36:32;;;;;;;8.10;1.23;;;10.90;85.50;;;;;;5057743;28;20451;-72
2024/02/13 12:39:08;;;;;;;8.90;1.97;;;10.90;86.40;;;;;;5052087;28;20494;-73
2024/02/13 12:41:36;;;;;;;8.00;1.33;;;10.90;88.60;;;;;;5057310;28;20519;-74
2024/02/13 12:44:05;;;;;;;7.23;1.50;;;11.00;89.70;;;;;;5059350;28;20462;-73
2024/02/13 12:46:36;;;;;;;7.60;1.27;;;10.90;89.80;;;;;;5057615;28;20866;-72
2024/02/13 12:49:06;;;;;;;7.17;1.20;;;10.70;90.50;;;;;;5068493;28;20450;-73
2024/02/13 12:51:35;;;;;;;7.90;1.20;;;10.60;90.30;;;;;;5065807;28;20547;-72
2024/02/13 12:54:06;;;;;;;8.43;1.00;;;10.40;88.40;;;;;;5068014;28;20461;-72
2024/02/13 12:56:34;;;;;;;6.77;0.97;;;10.30;87.20;;;;;;5062644;28;20500;-70
2024/02/13 12:59:02;;;;;;;6.73;1.37;;;10.30;88.80;;;;;;5063725;28;20445;-72
2024/02/13 13:01:37;;;;;;;6.80;1.00;;;10.40;88.50;;;;;;5068961;28;20441;-71
2024/02/13 13:04:09;;;;;;;6.57;1.23;;;10.50;90.30;;;;;;5064627;28;21028;-69